createdAt,value
2023-11-30T00:01:59.949Z,83.36
2023-11-30T00:04:02.755Z,87.82
2023-11-30T00:06:05.876Z,88.18
2023-11-30T00:08:08.699Z,89.27
2023-11-30T00:10:11.470Z,90.45
2023-11-30T00:12:14.487Z,90.09
2023-11-30T00:14:17.254Z,89.00
2023-11-30T00:16:20.008Z,89.00
2023-11-30T00:18:22.849Z,89.00
2023-11-30T00:20:25.632Z,89.27
2023-11-30T00:22:28.363Z,89.73
2023-11-30T00:24:31.119Z,89.55
2023-11-30T00:26:33.862Z,86.18
2023-11-30T00:28:36.675Z,83.09
2023-11-30T00:30:39.605Z,69.36
2023-11-30T00:32:42.602Z,63.73
2023-11-30T00:34:45.379Z,67.73
2023-11-30T00:36:48.532Z,70.64
2023-11-30T00:38:51.323Z,74.82
2023-11-30T00:40:54.498Z,81.09
2023-11-30T00:42:57.463Z,82.27
2023-11-30T00:45:00.420Z,86.09
2023-11-30T00:47:03.238Z,83.64
2023-11-30T00:49:06.014Z,80.73
2023-11-30T00:51:12.225Z,75.55
2023-11-30T00:53:14.976Z,67.09
2023-11-30T00:55:17.707Z,62.73
2023-11-30T00:57:20.506Z,59.45
2023-11-30T00:59:23.344Z,59.00
2023-11-30T01:01:26.832Z,51.18
2023-11-30T01:03:29.724Z,50.55
2023-11-30T01:05:32.557Z,52.82
2023-11-30T01:07:37.244Z,53.82
2023-11-30T01:09:40.008Z,58.18
2023-11-30T01:11:45.492Z,65.00
2023-11-30T01:13:48.265Z,64.00
2023-11-30T01:15:51.055Z,63.36
2023-11-30T01:17:53.963Z,63.18
2023-11-30T01:19:57.034Z,63.36
2023-11-30T01:21:59.771Z,47.45
2023-11-30T01:24:02.526Z,47.36
2023-11-30T01:26:05.523Z,48.45
2023-11-30T01:28:08.326Z,44.82
2023-11-30T01:30:11.775Z,40.73
2023-11-30T01:32:14.538Z,37.27
2023-11-30T01:34:17.303Z,35.36
2023-11-30T01:36:21.158Z,36.00
2023-11-30T01:38:25.099Z,36.91
2023-11-30T01:40:28.105Z,37.00
2023-11-30T01:42:30.887Z,37.09
2023-11-30T01:44:33.641Z,39.27
2023-11-30T01:46:38.567Z,42.36
2023-11-30T01:48:45.265Z,42.00
2023-11-30T01:50:48.892Z,42.18
2023-11-30T01:52:51.794Z,46.55
2023-11-30T01:54:54.546Z,51.18
2023-11-30T01:56:57.951Z,52.00
2023-11-30T01:59:00.714Z,52.91
2023-11-30T02:01:05.001Z,60.09
2023-11-30T02:03:08.314Z,56.91
2023-11-30T02:05:11.703Z,56.00
2023-11-30T02:07:14.454Z,56.00
2023-11-30T02:09:17.317Z,54.18
2023-11-30T02:11:20.417Z,52.55
2023-11-30T02:13:25.705Z,53.00
2023-11-30T02:15:28.550Z,62.00
2023-11-30T02:17:31.529Z,67.82
2023-11-30T02:19:34.380Z,68.27
2023-11-30T02:21:37.107Z,69.45
2023-11-30T02:23:39.834Z,69.55
2023-11-30T02:25:43.734Z,76.91
2023-11-30T02:27:46.468Z,80.55
2023-11-30T02:29:49.254Z,80.00
2023-11-30T02:31:52.840Z,81.00
2023-11-30T02:33:56.506Z,67.45
2023-11-30T02:35:59.274Z,52.73
2023-11-30T02:38:02.148Z,53.55
2023-11-30T02:40:05.559Z,56.36
2023-11-30T02:42:08.325Z,62.36
2023-11-30T02:44:11.095Z,65.45
2023-11-30T02:46:14.578Z,68.55
2023-11-30T02:48:17.422Z,72.09
2023-11-30T02:50:20.253Z,83.27
2023-11-30T02:52:23.081Z,87.36
2023-11-30T02:54:25.857Z,88.45
2023-11-30T02:56:28.601Z,85.64
2023-11-30T02:58:31.317Z,85.18
2023-11-30T03:00:34.079Z,78.91
2023-11-30T03:02:37.086Z,62.36
2023-11-30T03:04:39.844Z,56.45
2023-11-30T03:06:43.192Z,51.73
2023-11-30T03:08:48.015Z,48.91
2023-11-30T03:10:52.144Z,51.00
2023-11-30T03:12:55.701Z,50.00
2023-11-30T03:14:58.470Z,48.73
2023-11-30T03:17:01.233Z,48.45
2023-11-30T03:19:14.337Z,49.45
2023-11-30T03:21:21.057Z,49.27
2023-11-30T03:23:23.806Z,47.64
2023-11-30T03:25:26.544Z,46.36
2023-11-30T03:27:29.330Z,43.00
2023-11-30T03:29:32.134Z,42.00
2023-11-30T03:31:36.931Z,42.27
2023-11-30T03:33:40.417Z,43.82
2023-11-30T03:35:43.876Z,45.55
2023-11-30T03:37:46.633Z,54.09
2023-11-30T03:39:49.455Z,59.55
2023-11-30T03:41:52.413Z,60.45
2023-11-30T03:43:55.227Z,58.55
2023-11-30T03:45:57.994Z,51.64
2023-11-30T03:48:01.441Z,44.73
2023-11-30T03:50:04.371Z,46.91
2023-11-30T03:52:07.111Z,52.36
2023-11-30T03:54:09.846Z,53.27
2023-11-30T03:56:12.668Z,54.00
2023-11-30T03:58:15.418Z,53.45
2023-11-30T04:00:18.564Z,53.45
2023-11-30T04:02:22.063Z,53.09
2023-11-30T04:04:24.962Z,53.00
2023-11-30T04:06:27.948Z,53.00
2023-11-30T04:08:30.763Z,51.36
2023-11-30T04:10:33.500Z,49.55
2023-11-30T04:12:36.235Z,47.00
2023-11-30T04:14:38.966Z,44.82
2023-11-30T04:16:41.782Z,42.36
2023-11-30T04:18:45.463Z,41.00
2023-11-30T04:20:48.273Z,41.00
2023-11-30T04:22:51.092Z,41.00
2023-11-30T04:24:53.835Z,41.00
2023-11-30T04:26:56.641Z,40.09
2023-11-30T04:28:59.481Z,40.36
2023-11-30T04:31:02.327Z,39.91
2023-11-30T04:33:05.311Z,38.36
2023-11-30T04:35:08.834Z,37.00
2023-11-30T04:37:11.630Z,37.27
2023-11-30T04:39:14.515Z,39.91
2023-11-30T04:41:17.453Z,45.27
2023-11-30T04:43:20.305Z,49.45
2023-11-30T04:45:29.373Z,50.00
2023-11-30T04:47:32.966Z,50.91
2023-11-30T04:49:35.852Z,52.64
2023-11-30T04:51:38.622Z,53.55
2023-11-30T04:53:41.601Z,51.36
2023-11-30T04:55:44.354Z,50.00
2023-11-30T04:57:47.107Z,50.00
2023-11-30T04:59:49.861Z,52.55
2023-11-30T05:01:53.127Z,54.27
2023-11-30T05:03:58.317Z,55.18
2023-11-30T05:06:01.341Z,56.64
2023-11-30T05:08:04.317Z,58.27
2023-11-30T05:10:07.484Z,59.00
2023-11-30T05:12:10.293Z,59.64
2023-11-30T05:14:13.085Z,60.00
2023-11-30T05:16:16.066Z,59.45
2023-11-30T05:18:19.442Z,59.00
2023-11-30T05:20:22.220Z,59.55
2023-11-30T05:22:24.979Z,59.00
2023-11-30T05:24:27.737Z,55.45
2023-11-30T05:26:30.496Z,60.18
2023-11-30T05:28:33.567Z,68.45
2023-11-30T05:30:36.382Z,68.91
2023-11-30T05:32:39.142Z,71.64
2023-11-30T05:34:41.992Z,63.45
2023-11-30T05:36:44.753Z,61.64
2023-11-30T05:38:47.544Z,57.82
2023-11-30T05:40:50.453Z,55.18
2023-11-30T05:42:53.181Z,55.91
2023-11-30T05:44:55.978Z,54.55
2023-11-30T05:46:58.850Z,53.18
2023-11-30T05:49:01.699Z,48.36
2023-11-30T05:51:04.834Z,45.73
2023-11-30T05:53:07.575Z,46.36
2023-11-30T05:55:11.761Z,46.27
2023-11-30T05:57:14.547Z,47.00
2023-11-30T05:59:17.267Z,47.45
2023-11-30T06:01:20.242Z,48.00
2023-11-30T06:03:23.117Z,48.91
2023-11-30T06:05:26.066Z,49.00
2023-11-30T06:07:28.976Z,48.91
2023-11-30T06:09:31.789Z,48.00
2023-11-30T06:11:34.859Z,49.00
2023-11-30T06:13:37.616Z,50.00
2023-11-30T06:15:40.453Z,50.91
2023-11-30T06:17:43.241Z,52.91
2023-11-30T06:19:46.427Z,58.73
2023-11-30T06:21:49.178Z,73.18
2023-11-30T06:23:51.974Z,67.18
2023-11-30T06:25:57.643Z,63.73
2023-11-30T06:28:00.405Z,59.09
2023-11-30T06:30:04.010Z,54.09
2023-11-30T06:32:06.773Z,49.45
2023-11-30T06:34:09.518Z,51.55
2023-11-30T06:36:12.570Z,51.55
2023-11-30T06:38:15.318Z,52.64
2023-11-30T06:40:18.563Z,64.09
2023-11-30T06:42:21.312Z,69.36
2023-11-30T06:44:24.129Z,66.00
2023-11-30T06:46:26.976Z,62.09
2023-11-30T06:48:29.773Z,61.00
2023-11-30T06:50:33.701Z,64.45
2023-11-30T06:52:36.430Z,91.00
2023-11-30T06:54:39.348Z,83.27
2023-11-30T06:56:42.743Z,95.45
2023-11-30T06:58:45.565Z,99.82
2023-11-30T07:00:48.378Z,202.45
2023-11-30T07:02:51.159Z,180.36
2023-11-30T07:04:53.992Z,152.18
2023-11-30T07:06:56.808Z,143.82
2023-11-30T07:08:59.618Z,139.91
2023-11-30T07:11:02.353Z,138.00
2023-11-30T07:13:05.099Z,139.64
2023-11-30T07:15:08.739Z,144.45
2023-11-30T07:17:11.569Z,150.18
2023-11-30T07:19:14.842Z,151.09
2023-11-30T07:21:17.632Z,149.18
2023-11-30T07:23:20.417Z,150.45
2023-11-30T07:25:23.911Z,156.55
2023-11-30T07:27:27.620Z,167.27
2023-11-30T07:29:34.532Z,167.09
2023-11-30T07:31:37.394Z,177.00
2023-11-30T07:33:40.188Z,186.09
2023-11-30T07:35:44.018Z,177.55
2023-11-30T07:37:46.812Z,175.55
2023-11-30T07:39:49.610Z,146.55
2023-11-30T07:41:52.402Z,134.00
2023-11-30T07:43:55.133Z,139.64
2023-11-30T07:45:58.029Z,139.45
2023-11-30T07:48:01.066Z,142.18
2023-11-30T07:50:04.071Z,133.91
2023-11-30T07:52:06.966Z,163.55
2023-11-30T07:54:09.758Z,202.91
2023-11-30T07:56:12.526Z,201.18
2023-11-30T07:58:15.276Z,191.18
2023-11-30T08:00:18.532Z,211.45
2023-11-30T08:02:21.331Z,218.91
2023-11-30T08:04:24.442Z,209.18
2023-11-30T08:06:27.264Z,209.73
2023-11-30T08:08:30.022Z,207.09
2023-11-30T08:10:40.865Z,202.45
2023-11-30T08:12:43.606Z,180.09
2023-11-30T08:14:46.388Z,160.36
2023-11-30T08:16:49.139Z,161.55
2023-11-30T08:18:51.963Z,155.27
2023-11-30T08:20:55.577Z,148.64
2023-11-30T08:22:58.323Z,171.27
2023-11-30T08:25:01.325Z,262.27
2023-11-30T08:27:04.772Z,458.36
2023-11-30T08:29:07.562Z,349.36
2023-11-30T08:31:10.378Z,278.64
2023-11-30T08:33:13.306Z,460.18
2023-11-30T08:35:16.157Z,482.73
2023-11-30T08:37:19.634Z,410.09
2023-11-30T08:39:25.334Z,361.18
2023-11-30T08:41:28.257Z,431.36
2023-11-30T08:43:31.214Z,442.91
2023-11-30T08:45:34.032Z,406.00
2023-11-30T08:47:37.126Z,433.18
2023-11-30T08:49:39.940Z,471.09
2023-11-30T08:51:46.002Z,489.09
2023-11-30T08:53:49.030Z,481.64
2023-11-30T08:55:51.791Z,483.82
2023-11-30T08:57:55.403Z,485.64
2023-11-30T08:59:58.184Z,447.36
2023-11-30T09:02:00.986Z,414.45
2023-11-30T09:04:07.305Z,393.64
2023-11-30T09:06:10.542Z,455.18
2023-11-30T09:08:13.333Z,494.09
2023-11-30T09:10:16.948Z,497.45
2023-11-30T09:12:19.763Z,496.09
2023-11-30T09:14:22.583Z,483.18
2023-11-30T09:16:26.746Z,487.45
2023-11-30T09:18:29.629Z,467.55
2023-11-30T09:20:32.381Z,433.64
2023-11-30T09:22:38.790Z,428.45
2023-11-30T09:24:41.779Z,395.73
2023-11-30T09:26:46.391Z,364.64
2023-11-30T09:28:50.161Z,344.09
2023-11-30T09:30:53.066Z,333.64
2023-11-30T09:32:56.061Z,338.55
2023-11-30T09:34:58.838Z,315.18
2023-11-30T09:37:01.675Z,324.18
2023-11-30T09:39:04.432Z,304.45
2023-11-30T09:41:08.003Z,289.27
2023-11-30T09:43:11.136Z,283.64
2023-11-30T09:45:15.821Z,291.82
2023-11-30T09:47:18.970Z,284.45
2023-11-30T09:49:21.774Z,256.82
2023-11-30T09:51:27.025Z,246.27
2023-11-30T09:53:30.181Z,241.00
2023-11-30T09:55:32.986Z,238.00
2023-11-30T09:57:35.888Z,241.00
2023-11-30T09:59:39.032Z,237.91
2023-11-30T10:01:42.067Z,233.18
2023-11-30T10:03:45.146Z,224.00
2023-11-30T10:05:48.300Z,214.91
2023-11-30T10:07:51.492Z,243.45
2023-11-30T10:09:54.329Z,244.73
2023-11-30T10:11:57.882Z,229.09
2023-11-30T10:14:01.045Z,215.36
2023-11-30T10:16:07.068Z,228.91
2023-11-30T10:18:11.927Z,241.82
2023-11-30T10:20:15.422Z,231.00
2023-11-30T10:22:18.274Z,221.91
2023-11-30T10:24:21.185Z,213.45
2023-11-30T10:26:25.871Z,212.00
2023-11-30T10:28:29.026Z,213.64
2023-11-30T10:30:33.614Z,206.73
2023-11-30T10:32:41.013Z,267.45
2023-11-30T10:34:53.700Z,245.91
2023-11-30T10:37:01.190Z,278.36
2023-11-30T10:39:17.809Z,268.91
2023-11-30T10:41:28.032Z,243.09
2023-11-30T10:43:33.800Z,222.45
2023-11-30T10:45:40.737Z,213.00
2023-11-30T10:47:44.316Z,209.00
2023-11-30T10:49:50.142Z,208.64
2023-11-30T10:51:56.656Z,198.27
2023-11-30T10:54:09.463Z,194.82
2023-11-30T10:56:14.974Z,237.45
2023-11-30T10:58:25.180Z,281.45
2023-11-30T11:00:35.144Z,220.91
2023-11-30T11:02:46.216Z,204.64
2023-11-30T11:04:48.966Z,194.18
2023-11-30T11:07:02.019Z,192.27
2023-11-30T11:09:08.942Z,199.36
2023-11-30T11:11:12.117Z,196.18
2023-11-30T11:13:27.477Z,192.82
2023-11-30T11:15:31.335Z,197.00
2023-11-30T11:17:34.225Z,197.82
2023-11-30T11:19:41.793Z,197.00
2023-11-30T11:21:45.222Z,197.00
2023-11-30T11:23:49.413Z,197.27
2023-11-30T11:25:58.404Z,194.64
2023-11-30T11:28:01.558Z,192.55
2023-11-30T11:30:08.604Z,189.27
2023-11-30T11:32:13.221Z,191.18
2023-11-30T11:34:17.242Z,189.55
2023-11-30T11:36:20.117Z,209.64
2023-11-30T11:38:23.022Z,215.55
2023-11-30T11:40:26.647Z,274.45
2023-11-30T11:42:29.442Z,304.45
2023-11-30T11:44:32.274Z,308.27
2023-11-30T11:46:35.110Z,276.55
2023-11-30T11:48:37.909Z,292.64
2023-11-30T11:50:43.310Z,285.09
2023-11-30T11:52:46.067Z,234.45
2023-11-30T11:55:02.872Z,232.45
2023-11-30T11:57:06.232Z,280.91
2023-11-30T11:59:09.016Z,285.00
2023-11-30T12:01:12.750Z,271.91
2023-11-30T12:03:15.653Z,238.36
2023-11-30T12:05:26.852Z,226.18
2023-11-30T12:07:30.029Z,205.45
2023-11-30T12:09:32.906Z,196.45
2023-11-30T12:11:35.748Z,198.27
2023-11-30T12:13:38.994Z,190.64
2023-11-30T12:15:43.050Z,261.09
2023-11-30T12:17:46.799Z,476.18
2023-11-30T12:19:49.613Z,482.64
2023-11-30T12:21:52.459Z,486.55
2023-11-30T12:23:56.622Z,461.09
2023-11-30T12:25:59.477Z,406.18
2023-11-30T12:28:02.381Z,346.18
2023-11-30T12:30:05.784Z,403.27
2023-11-30T12:32:08.690Z,427.18
2023-11-30T12:34:11.523Z,459.82
2023-11-30T12:36:15.380Z,400.18
2023-11-30T12:38:18.549Z,349.36
2023-11-30T12:40:21.339Z,329.64
2023-11-30T12:42:25.271Z,281.18
2023-11-30T12:44:28.250Z,282.09
2023-11-30T12:46:31.070Z,330.36
2023-11-30T12:48:34.176Z,291.45
2023-11-30T12:50:37.102Z,249.45
2023-11-30T12:52:39.869Z,235.82
2023-11-30T12:54:42.725Z,228.91
2023-11-30T12:56:45.583Z,220.64
2023-11-30T12:58:48.509Z,215.82
2023-11-30T13:00:51.374Z,216.64
2023-11-30T13:02:54.433Z,215.91
2023-11-30T13:04:57.897Z,216.91
2023-11-30T13:07:01.838Z,211.73
2023-11-30T13:09:05.114Z,209.09
2023-11-30T13:11:08.654Z,207.45
2023-11-30T13:13:11.599Z,204.09
2023-11-30T13:15:14.699Z,205.18
2023-11-30T13:17:18.264Z,222.91
2023-11-30T13:19:24.702Z,232.73
2023-11-30T13:21:28.978Z,216.73
2023-11-30T13:23:32.008Z,201.00
2023-11-30T13:25:34.844Z,198.36
2023-11-30T13:27:37.675Z,197.55
2023-11-30T13:29:40.493Z,196.55
2023-11-30T13:31:43.607Z,198.27
2023-11-30T13:33:46.600Z,198.00
2023-11-30T13:35:49.719Z,197.18
2023-11-30T13:37:52.608Z,196.64
2023-11-30T13:39:55.403Z,245.55
2023-11-30T13:42:00.876Z,222.64
2023-11-30T13:44:06.185Z,222.73
2023-11-30T13:46:14.146Z,245.09
2023-11-30T13:48:17.242Z,216.55
2023-11-30T13:50:30.245Z,198.27
2023-11-30T13:52:39.317Z,228.27
2023-11-30T13:54:42.143Z,354.27
2023-11-30T13:56:44.937Z,265.36
2023-11-30T13:58:47.681Z,241.82
2023-11-30T14:00:50.496Z,217.36
2023-11-30T14:02:53.397Z,211.09
2023-11-30T14:04:56.213Z,196.73
2023-11-30T14:06:59.423Z,191.18
2023-11-30T14:09:02.234Z,198.36
2023-11-30T14:11:10.548Z,203.73
2023-11-30T14:13:13.307Z,259.36
2023-11-30T14:15:16.585Z,317.09
2023-11-30T14:17:19.420Z,377.18
2023-11-30T14:19:22.413Z,280.27
2023-11-30T14:21:25.183Z,222.64
2023-11-30T14:23:28.418Z,205.36
2023-11-30T14:25:31.186Z,197.27
2023-11-30T14:27:34.187Z,280.45
2023-11-30T14:29:36.970Z,319.73
2023-11-30T14:31:39.785Z,446.91
2023-11-30T14:33:43.046Z,343.73
2023-11-30T14:35:45.782Z,274.55
2023-11-30T14:37:48.541Z,238.36
2023-11-30T14:39:51.609Z,230.82
2023-11-30T14:41:54.423Z,285.73
2023-11-30T14:43:57.543Z,230.45
2023-11-30T14:46:00.417Z,205.82
2023-11-30T14:48:07.118Z,207.27
2023-11-30T14:50:16.813Z,203.36
2023-11-30T14:52:19.767Z,213.82
2023-11-30T14:54:22.558Z,207.00
2023-11-30T14:56:26.700Z,194.55
2023-11-30T14:58:29.548Z,189.27
2023-11-30T15:00:37.933Z,189.55
2023-11-30T15:02:40.785Z,186.36
2023-11-30T15:04:43.548Z,180.27
2023-11-30T15:06:46.329Z,179.82
2023-11-30T15:08:49.088Z,181.73
2023-11-30T15:10:51.899Z,182.36
2023-11-30T15:12:55.573Z,192.91
2023-11-30T15:14:58.361Z,192.36
2023-11-30T15:17:01.151Z,177.36
2023-11-30T15:19:05.237Z,168.73
2023-11-30T15:21:08.757Z,164.27
2023-11-30T15:23:11.602Z,161.91
2023-11-30T15:25:18.972Z,160.36
2023-11-30T15:27:22.246Z,204.73
2023-11-30T15:29:25.359Z,206.82
2023-11-30T15:31:28.152Z,199.09
2023-11-30T15:33:30.954Z,184.18
2023-11-30T15:35:33.958Z,178.82
2023-11-30T15:37:36.922Z,175.00
2023-11-30T15:39:39.755Z,184.09
2023-11-30T15:41:47.567Z,232.64
2023-11-30T15:43:50.364Z,220.00
2023-11-30T15:45:53.339Z,206.27
2023-11-30T15:47:56.256Z,482.45
2023-11-30T15:49:59.091Z,471.18
2023-11-30T15:52:01.860Z,400.45
2023-11-30T15:54:04.849Z,451.09
2023-11-30T15:56:09.036Z,482.91
2023-11-30T15:58:12.200Z,425.36
2023-11-30T16:00:15.423Z,386.64
2023-11-30T16:02:18.341Z,342.73
2023-11-30T16:04:21.279Z,336.18
2023-11-30T16:06:24.814Z,396.00
2023-11-30T16:08:28.215Z,399.55
2023-11-30T16:10:30.966Z,355.64
2023-11-30T16:12:33.787Z,342.18
2023-11-30T16:14:36.530Z,311.18
2023-11-30T16:16:42.549Z,263.82
2023-11-30T16:18:45.349Z,244.64
2023-11-30T16:20:48.166Z,231.09
2023-11-30T16:22:51.100Z,224.18
2023-11-30T16:24:54.143Z,208.91
2023-11-30T16:26:57.824Z,202.55
2023-11-30T16:29:00.664Z,203.45
2023-11-30T16:31:04.600Z,239.27
2023-11-30T16:33:07.466Z,239.45
2023-11-30T16:35:10.282Z,229.36
2023-11-30T16:37:13.076Z,220.27
2023-11-30T16:39:16.262Z,214.00
2023-11-30T16:41:19.111Z,280.18
2023-11-30T16:43:22.253Z,257.64
2023-11-30T16:45:26.216Z,204.27
2023-11-30T16:47:30.447Z,182.18
2023-11-30T16:49:33.214Z,173.18
2023-11-30T16:51:41.599Z,173.45
2023-11-30T16:53:46.550Z,166.18
2023-11-30T16:55:49.415Z,164.64
2023-11-30T16:57:52.159Z,157.82
2023-11-30T16:59:54.985Z,162.73
2023-11-30T17:01:58.442Z,160.45
2023-11-30T17:04:03.791Z,189.27
2023-11-30T17:06:06.823Z,194.09
2023-11-30T17:08:09.618Z,232.09
2023-11-30T17:10:12.474Z,187.82
2023-11-30T17:12:16.069Z,164.55
2023-11-30T17:14:18.819Z,161.27
2023-11-30T17:16:23.364Z,162.55
2023-11-30T17:18:26.212Z,222.09
2023-11-30T17:20:29.114Z,432.55
2023-11-30T17:22:31.985Z,289.73
2023-11-30T17:24:34.787Z,268.36
2023-11-30T17:26:37.554Z,198.09
2023-11-30T17:28:40.366Z,173.64
2023-11-30T17:30:43.301Z,159.55
2023-11-30T17:32:46.195Z,155.27
2023-11-30T17:34:49.563Z,149.18
2023-11-30T17:36:53.399Z,146.45
2023-11-30T17:38:56.208Z,145.27
2023-11-30T17:40:58.992Z,138.36
2023-11-30T17:43:01.794Z,149.82
2023-11-30T17:45:06.297Z,138.82
2023-11-30T17:47:09.375Z,131.64
2023-11-30T17:49:12.633Z,130.45
2023-11-30T17:51:19.157Z,132.55
2023-11-30T17:53:22.399Z,128.55
2023-11-30T17:55:25.363Z,129.82
2023-11-30T17:57:28.820Z,126.73
2023-11-30T17:59:31.895Z,124.55
2023-11-30T18:01:34.829Z,122.64
2023-11-30T18:03:38.006Z,141.27
2023-11-30T18:05:41.149Z,133.82
2023-11-30T18:07:43.912Z,126.18
2023-11-30T18:09:47.074Z,123.09
2023-11-30T18:11:50.034Z,122.00
2023-11-30T18:13:52.800Z,373.27
2023-11-30T18:15:56.270Z,462.73
2023-11-30T18:18:00.224Z,360.64
2023-11-30T18:20:03.470Z,322.18
2023-11-30T18:22:06.704Z,222.00
2023-11-30T18:24:09.566Z,181.91
2023-11-30T18:26:12.354Z,162.91
2023-11-30T18:28:15.110Z,167.64
2023-11-30T18:30:17.863Z,159.36
2023-11-30T18:32:20.771Z,152.00
2023-11-30T18:34:24.227Z,149.73
2023-11-30T18:36:27.329Z,159.82
2023-11-30T18:38:37.049Z,153.91
2023-11-30T18:40:45.021Z,143.73
2023-11-30T18:42:51.180Z,177.00
2023-11-30T18:44:54.336Z,225.91
2023-11-30T18:46:57.634Z,199.55
2023-11-30T18:49:02.013Z,185.45
2023-11-30T18:51:07.262Z,244.18
2023-11-30T18:53:11.127Z,367.27
2023-11-30T18:55:14.828Z,398.27
2023-11-30T18:57:18.645Z,428.27
2023-11-30T18:59:22.972Z,355.64
2023-11-30T19:01:27.760Z,362.73
2023-11-30T19:03:31.212Z,273.64
2023-11-30T19:05:36.819Z,272.18
2023-11-30T19:07:42.536Z,214.64
2023-11-30T19:09:46.305Z,222.73
2023-11-30T19:11:50.522Z,174.45
2023-11-30T19:13:53.956Z,165.91
2023-11-30T19:15:57.380Z,155.45
2023-11-30T19:18:01.816Z,148.09
2023-11-30T19:20:07.630Z,144.73
2023-11-30T19:22:10.812Z,161.09
2023-11-30T19:24:16.266Z,191.45
2023-11-30T19:26:20.332Z,168.27
2023-11-30T19:28:23.593Z,171.27
2023-11-30T19:30:29.104Z,162.09
2023-11-30T19:32:32.417Z,146.64
2023-11-30T19:34:35.924Z,194.36
2023-11-30T19:36:40.791Z,144.73
2023-11-30T19:38:44.902Z,134.73
2023-11-30T19:40:48.609Z,133.82
2023-11-30T19:42:52.275Z,137.27
2023-11-30T19:44:55.991Z,131.18
2023-11-30T19:46:59.825Z,129.18
2023-11-30T19:49:03.774Z,167.18
2023-11-30T19:51:07.718Z,133.55
2023-11-30T19:53:11.261Z,190.36
2023-11-30T19:55:15.126Z,353.91
2023-11-30T19:57:19.542Z,241.82
2023-11-30T19:59:23.135Z,339.27
2023-11-30T20:01:26.748Z,335.45
2023-11-30T20:03:30.599Z,328.27
2023-11-30T20:05:34.428Z,270.00
2023-11-30T20:07:37.978Z,234.18
2023-11-30T20:09:42.087Z,452.91
2023-11-30T20:11:45.762Z,446.91
2023-11-30T20:13:49.880Z,437.09
2023-11-30T20:15:53.495Z,371.73
2023-11-30T20:17:57.179Z,305.00
2023-11-30T20:20:00.720Z,283.36
2023-11-30T20:22:04.250Z,290.82
2023-11-30T20:24:07.993Z,309.64
2023-11-30T20:26:11.540Z,310.91
2023-11-30T20:28:15.148Z,428.36
2023-11-30T20:30:18.621Z,438.27
2023-11-30T20:32:24.674Z,464.09
2023-11-30T20:34:29.327Z,378.09
2023-11-30T20:36:34.029Z,293.27
2023-11-30T20:38:40.594Z,354.27
2023-11-30T20:40:46.438Z,450.82
2023-11-30T20:42:50.684Z,394.55
2023-11-30T20:44:56.065Z,304.73
2023-11-30T20:46:59.402Z,330.27
2023-11-30T20:49:03.352Z,253.09
2023-11-30T20:51:06.570Z,269.09
2023-11-30T20:53:09.612Z,382.09
2023-11-30T20:55:14.041Z,370.82
2023-11-30T20:57:16.884Z,357.00
2023-11-30T20:59:22.779Z,397.18
2023-11-30T21:01:25.771Z,394.73
2023-11-30T21:03:28.759Z,343.09
2023-11-30T21:05:31.594Z,329.91
2023-11-30T21:07:34.348Z,278.45
2023-11-30T21:09:38.063Z,216.09
2023-11-30T21:11:40.839Z,197.82
2023-11-30T21:13:48.067Z,171.73
2023-11-30T21:16:05.805Z,168.27
2023-11-30T21:18:08.754Z,186.73
2023-11-30T21:20:11.647Z,179.18
2023-11-30T21:22:23.473Z,172.55
2023-11-30T21:24:26.990Z,178.55
2023-11-30T21:26:29.755Z,195.45
2023-11-30T21:28:32.634Z,218.64
2023-11-30T21:30:44.504Z,196.36
2023-11-30T21:32:47.273Z,158.73
2023-11-30T21:34:50.050Z,144.82
2023-11-30T21:36:52.871Z,132.18
2023-11-30T21:38:55.643Z,122.91
2023-11-30T21:40:59.501Z,119.27
2023-11-30T21:43:03.395Z,123.00
2023-11-30T21:45:06.567Z,122.82
2023-11-30T21:47:13.282Z,117.55
2023-11-30T21:49:19.867Z,116.73
2023-11-30T21:51:28.869Z,112.82
2023-11-30T21:53:36.031Z,112.09
2023-11-30T21:55:40.012Z,120.09
2023-11-30T21:57:42.798Z,121.73
2023-11-30T21:59:45.576Z,115.91
2023-11-30T22:01:48.499Z,138.64
2023-11-30T22:03:51.460Z,139.27
2023-11-30T22:05:54.251Z,126.09
2023-11-30T22:07:57.163Z,108.91
2023-11-30T22:09:59.965Z,114.27
2023-11-30T22:12:06.512Z,136.27
2023-11-30T22:14:09.283Z,133.36
2023-11-30T22:16:18.739Z,115.00
2023-11-30T22:18:26.621Z,113.55
2023-11-30T22:20:29.394Z,105.82
2023-11-30T22:22:32.140Z,110.91
2023-11-30T22:24:35.082Z,113.45
2023-11-30T22:26:37.864Z,109.27
2023-11-30T22:28:40.688Z,105.00
2023-11-30T22:30:43.620Z,118.55
2023-11-30T22:32:46.476Z,114.18
2023-11-30T22:34:49.266Z,122.82
2023-11-30T22:36:52.077Z,125.82
2023-11-30T22:38:55.431Z,122.18
2023-11-30T22:40:58.637Z,135.00
2023-11-30T22:43:01.445Z,136.27
2023-11-30T22:45:05.554Z,107.91
2023-11-30T22:47:08.297Z,101.27
2023-11-30T22:49:11.111Z,104.82
2023-11-30T22:51:14.046Z,106.91
2023-11-30T22:53:16.832Z,110.18
2023-11-30T22:55:19.871Z,107.27
2023-11-30T22:57:23.131Z,108.82
2023-11-30T22:59:25.963Z,116.64
2023-11-30T23:01:28.927Z,116.00
2023-11-30T23:03:31.995Z,115.00
2023-11-30T23:05:37.411Z,127.64
2023-11-30T23:07:41.662Z,138.45
2023-11-30T23:09:44.403Z,142.64
2023-11-30T23:11:47.162Z,142.64
2023-11-30T23:13:49.925Z,115.45
2023-11-30T23:15:53.124Z,122.82
2023-11-30T23:17:56.846Z,125.36
2023-11-30T23:19:59.587Z,124.73
2023-11-30T23:22:02.617Z,126.73
2023-11-30T23:24:05.608Z,147.55
2023-11-30T23:26:08.399Z,140.64
2023-11-30T23:28:13.497Z,117.82
2023-11-30T23:30:16.284Z,111.00
2023-11-30T23:32:19.020Z,118.73
2023-11-30T23:34:22.838Z,135.82
2023-11-30T23:36:27.330Z,131.64
2023-11-30T23:38:30.242Z,127.00
2023-11-30T23:40:33.019Z,126.00
2023-11-30T23:42:35.876Z,123.91
2023-11-30T23:44:38.985Z,121.09
2023-11-30T23:46:42.004Z,129.45
2023-11-30T23:48:45.900Z,152.91
2023-11-30T23:50:48.668Z,153.73
2023-11-30T23:52:51.492Z,156.09
2023-11-30T23:54:54.251Z,152.18
2023-11-30T23:56:57.033Z,152.73
2023-11-30T23:58:59.779Z,151.82
